sensor_id;sensor_type;location;lat;lon;timestamp;P1;durP1;ratioP1;P2;durP2;ratioP2
25511;SDS011;13414;44.534;18.700;2023-03-01T00:01:46;226.18;;;102.15;;
25511;SDS011;13414;44.534;18.700;2023-03-01T00:04:14;105.53;;;60.58;;
25511;SDS011;13414;44.534;18.700;2023-03-01T00:06:42;86.88;;;56.30;;
25511;SDS011;13414;44.534;18.700;2023-03-01T00:09:11;94.03;;;60.33;;
25511;SDS011;13414;44.534;18.700;2023-03-01T00:11:40;92.82;;;57.65;;
25511;SDS011;13414;44.534;18.700;2023-03-01T00:14:08;173.10;;;85.65;;
25511;SDS011;13414;44.534;18.700;2023-03-01T00:16:37;174.05;;;84.82;;
25511;SDS011;13414;44.534;18.700;2023-03-01T00:19:06;83.72;;;51.67;;
25511;SDS011;13414;44.534;18.700;2023-03-01T00:21:34;76.05;;;48.67;;
25511;SDS011;13414;44.534;18.700;2023-03-01T00:24:02;74.75;;;47.05;;
25511;SDS011;13414;44.534;18.700;2023-03-01T00:26:30;74.90;;;46.17;;
25511;SDS011;13414;44.534;18.700;2023-03-01T00:29:00;71.63;;;43.58;;
25511;SDS011;13414;44.534;18.700;2023-03-01T00:31:28;63.63;;;41.72;;
25511;SDS011;13414;44.534;18.700;2023-03-01T00:33:57;70.20;;;42.63;;
25511;SDS011;13414;44.534;18.700;2023-03-01T00:36:28;88.57;;;54.55;;
25511;SDS011;13414;44.534;18.700;2023-03-01T00:38:57;89.10;;;53.88;;
25511;SDS011;13414;44.534;18.700;2023-03-01T00:41:25;90.43;;;53.85;;
25511;SDS011;13414;44.534;18.700;2023-03-01T00:43:53;80.03;;;47.63;;
25511;SDS011;13414;44.534;18.700;2023-03-01T00:46:23;131.57;;;76.80;;
25511;SDS011;13414;44.534;18.700;2023-03-01T00:48:52;105.15;;;57.97;;
25511;SDS011;13414;44.534;18.700;2023-03-01T00:51:21;111.70;;;58.10;;
25511;SDS011;13414;44.534;18.700;2023-03-01T00:53:50;102.72;;;55.97;;
25511;SDS011;13414;44.534;18.700;2023-03-01T00:56:18;96.30;;;52.15;;
25511;SDS011;13414;44.534;18.700;2023-03-01T00:58:46;103.10;;;56.20;;
25511;SDS011;13414;44.534;18.700;2023-03-01T01:01:14;96.13;;;54.80;;
25511;SDS011;13414;44.534;18.700;2023-03-01T01:03:46;90.88;;;51.92;;
25511;SDS011;13414;44.534;18.700;2023-03-01T01:06:16;88.00;;;51.70;;
25511;SDS011;13414;44.534;18.700;2023-03-01T01:08:45;86.00;;;48.45;;
25511;SDS011;13414;44.534;18.700;2023-03-01T01:11:14;84.63;;;47.45;;
25511;SDS011;13414;44.534;18.700;2023-03-01T01:13:43;83.57;;;45.17;;
25511;SDS011;13414;44.534;18.700;2023-03-01T01:16:11;85.93;;;47.50;;
25511;SDS011;13414;44.534;18.700;2023-03-01T01:18:39;78.57;;;45.30;;
25511;SDS011;13414;44.534;18.700;2023-03-01T01:21:09;79.90;;;44.50;;
25511;SDS011;13414;44.534;18.700;2023-03-01T01:23:38;76.57;;;43.85;;
25511;SDS011;13414;44.534;18.700;2023-03-01T01:26:07;77.07;;;42.67;;
25511;SDS011;13414;44.534;18.700;2023-03-01T01:28:36;77.25;;;41.85;;
25511;SDS011;13414;44.534;18.700;2023-03-01T01:31:04;76.50;;;42.20;;
25511;SDS011;13414;44.534;18.700;2023-03-01T01:33:32;67.80;;;38.65;;
25511;SDS011;13414;44.534;18.700;2023-03-01T01:36:00;72.63;;;39.42;;
25511;SDS011;13414;44.534;18.700;2023-03-01T01:38:29;64.78;;;40.58;;
25511;SDS011;13414;44.534;18.700;2023-03-01T01:40:57;63.97;;;36.90;;
25511;SDS011;13414;44.534;18.700;2023-03-01T01:43:25;57.63;;;34.13;;
25511;SDS011;13414;44.534;18.700;2023-03-01T01:45:55;54.40;;;32.92;;
25511;SDS011;13414;44.534;18.700;2023-03-01T01:48:24;53.78;;;31.98;;
25511;SDS011;13414;44.534;18.700;2023-03-01T01:51:07;54.40;;;31.00;;
25511;SDS011;13414;44.534;18.700;2023-03-01T01:53:41;59.80;;;33.72;;
25511;SDS011;13414;44.534;18.700;2023-03-01T01:56:12;51.65;;;31.02;;
25511;SDS011;13414;44.534;18.700;2023-03-01T01:58:48;53.00;;;32.45;;
25511;SDS011;13414;44.534;18.700;2023-03-01T02:01:16;60.45;;;37.53;;
25511;SDS011;13414;44.534;18.700;2023-03-01T02:03:50;63.65;;;38.83;;
25511;SDS011;13414;44.534;18.700;2023-03-01T02:06:24;67.30;;;40.28;;
25511;SDS011;13414;44.534;18.700;2023-03-01T02:09:00;68.55;;;40.20;;
25511;SDS011;13414;44.534;18.700;2023-03-01T02:11:31;66.88;;;41.67;;
25511;SDS011;13414;44.534;18.700;2023-03-01T02:14:08;63.40;;;38.55;;
25511;SDS011;13414;44.534;18.700;2023-03-01T02:16:44;67.63;;;40.28;;
25511;SDS011;13414;44.534;18.700;2023-03-01T02:19:13;64.60;;;38.83;;
25511;SDS011;13414;44.534;18.700;2023-03-01T02:21:51;54.90;;;35.80;;
25511;SDS011;13414;44.534;18.700;2023-03-01T02:24:31;59.20;;;34.90;;
25511;SDS011;13414;44.534;18.700;2023-03-01T02:27:08;58.28;;;36.67;;
25511;SDS011;13414;44.534;18.700;2023-03-01T02:29:41;45.97;;;27.40;;
25511;SDS011;13414;44.534;18.700;2023-03-01T02:32:09;45.17;;;27.23;;
25511;SDS011;13414;44.534;18.700;2023-03-01T02:34:40;42.95;;;27.00;;
25511;SDS011;13414;44.534;18.700;2023-03-01T02:37:09;46.78;;;29.45;;
25511;SDS011;13414;44.534;18.700;2023-03-01T02:39:40;45.95;;;28.60;;
25511;SDS011;13414;44.534;18.700;2023-03-01T02:42:12;57.45;;;33.80;;
25511;SDS011;13414;44.534;18.700;2023-03-01T02:44:45;56.53;;;34.30;;
25511;SDS011;13414;44.534;18.700;2023-03-01T02:47:13;48.00;;;29.25;;
25511;SDS011;13414;44.534;18.700;2023-03-01T02:49:40;42.78;;;26.63;;
25511;SDS011;13414;44.534;18.700;2023-03-01T02:55:05;47.55;;;28.10;;
25511;SDS011;13414;44.534;18.700;2023-03-01T02:57:35;33.80;;;23.42;;
25511;SDS011;13414;44.534;18.700;2023-03-01T03:00:07;30.27;;;21.83;;
25511;SDS011;13414;44.534;18.700;2023-03-01T03:02:44;30.60;;;22.50;;
25511;SDS011;13414;44.534;18.700;2023-03-01T03:05:22;33.28;;;23.55;;
25511;SDS011;13414;44.534;18.700;2023-03-01T03:07:54;33.78;;;22.70;;
25511;SDS011;13414;44.534;18.700;2023-03-01T03:10:23;39.05;;;24.73;;
25511;SDS011;13414;44.534;18.700;2023-03-01T03:12:53;36.30;;;24.65;;
25511;SDS011;13414;44.534;18.700;2023-03-01T03:15:23;31.75;;;20.88;;
25511;SDS011;13414;44.534;18.700;2023-03-01T03:17:51;33.42;;;22.38;;
25511;SDS011;13414;44.534;18.700;2023-03-01T03:20:20;32.25;;;23.35;;
25511;SDS011;13414;44.534;18.700;2023-03-01T03:22:51;29.38;;;19.55;;
25511;SDS011;13414;44.534;18.700;2023-03-01T03:25:20;27.10;;;18.45;;
25511;SDS011;13414;44.534;18.700;2023-03-01T03:27:50;21.75;;;15.48;;
25511;SDS011;13414;44.534;18.700;2023-03-01T03:30:22;22.90;;;16.17;;
25511;SDS011;13414;44.534;18.700;2023-03-01T03:32:53;22.25;;;15.73;;
25511;SDS011;13414;44.534;18.700;2023-03-01T03:35:21;25.08;;;16.27;;
25511;SDS011;13414;44.534;18.700;2023-03-01T03:37:50;27.67;;;18.45;;
25511;SDS011;13414;44.534;18.700;2023-03-01T03:40:32;26.08;;;16.98;;
25511;SDS011;13414;44.534;18.700;2023-03-01T03:43:01;25.38;;;17.73;;
25511;SDS011;13414;44.534;18.700;2023-03-01T03:45:30;24.65;;;16.38;;
25511;SDS011;13414;44.534;18.700;2023-03-01T03:47:58;27.45;;;17.38;;
25511;SDS011;13414;44.534;18.700;2023-03-01T03:50:26;27.90;;;17.95;;
25511;SDS011;13414;44.534;18.700;2023-03-01T03:52:54;23.98;;;15.98;;
25511;SDS011;13414;44.534;18.700;2023-03-01T03:55:22;25.77;;;16.92;;
25511;SDS011;13414;44.534;18.700;2023-03-01T03:57:53;25.77;;;16.38;;
25511;SDS011;13414;44.534;18.700;2023-03-01T04:00:21;27.45;;;17.90;;
25511;SDS011;13414;44.534;18.700;2023-03-01T04:02:50;30.58;;;19.20;;
25511;SDS011;13414;44.534;18.700;2023-03-01T04:05:21;26.65;;;17.30;;
25511;SDS011;13414;44.534;18.700;2023-03-01T04:07:49;27.98;;;17.70;;
25511;SDS011;13414;44.534;18.700;2023-03-01T04:10:26;26.70;;;17.38;;
25511;SDS011;13414;44.534;18.700;2023-03-01T04:12:55;29.92;;;16.92;;
25511;SDS011;13414;44.534;18.700;2023-03-01T04:15:23;24.70;;;16.55;;
25511;SDS011;13414;44.534;18.700;2023-03-01T04:17:52;24.75;;;16.92;;
25511;SDS011;13414;44.534;18.700;2023-03-01T04:20:22;25.27;;;15.45;;
25511;SDS011;13414;44.534;18.700;2023-03-01T04:22:51;25.55;;;16.15;;
25511;SDS011;13414;44.534;18.700;2023-03-01T04:25:24;24.27;;;15.80;;
25511;SDS011;13414;44.534;18.700;2023-03-01T04:27:52;23.83;;;15.35;;
25511;SDS011;13414;44.534;18.700;2023-03-01T04:30:19;23.60;;;15.35;;
25511;SDS011;13414;44.534;18.700;2023-03-01T04:32:52;24.63;;;15.48;;
25511;SDS011;13414;44.534;18.700;2023-03-01T04:35:19;22.77;;;14.52;;
25511;SDS011;13414;44.534;18.700;2023-03-01T04:37:47;26.00;;;14.75;;
25511;SDS011;13414;44.534;18.700;2023-03-01T04:40:16;26.70;;;15.20;;
25511;SDS011;13414;44.534;18.700;2023-03-01T04:42:44;24.48;;;14.98;;
25511;SDS011;13414;44.534;18.700;2023-03-01T04:45:12;24.88;;;16.23;;
25511;SDS011;13414;44.534;18.700;2023-03-01T04:47:40;26.98;;;15.25;;
25511;SDS011;13414;44.534;18.700;2023-03-01T04:50:11;22.75;;;14.82;;
25511;SDS011;13414;44.534;18.700;2023-03-01T04:52:41;23.40;;;15.25;;
25511;SDS011;13414;44.534;18.700;2023-03-01T04:55:09;26.90;;;16.23;;
25511;SDS011;13414;44.534;18.700;2023-03-01T04:57:37;24.73;;;16.33;;
25511;SDS011;13414;44.534;18.700;2023-03-01T05:00:05;25.50;;;16.13;;
25511;SDS011;13414;44.534;18.700;2023-03-01T05:02:46;24.52;;;16.13;;
25511;SDS011;13414;44.534;18.700;2023-03-01T05:05:20;22.88;;;15.77;;
25511;SDS011;13414;44.534;18.700;2023-03-01T05:07:51;22.08;;;15.30;;
25511;SDS011;13414;44.534;18.700;2023-03-01T05:10:20;18.30;;;13.60;;
25511;SDS011;13414;44.534;18.700;2023-03-01T05:12:47;21.77;;;14.18;;
25511;SDS011;13414;44.534;18.700;2023-03-01T05:15:15;22.33;;;13.25;;
25511;SDS011;13414;44.534;18.700;2023-03-01T05:17:42;20.23;;;13.60;;
25511;SDS011;13414;44.534;18.700;2023-03-01T05:20:11;19.52;;;12.55;;
25511;SDS011;13414;44.534;18.700;2023-03-01T05:22:40;25.17;;;16.15;;
25511;SDS011;13414;44.534;18.700;2023-03-01T05:25:08;32.78;;;20.17;;
25511;SDS011;13414;44.534;18.700;2023-03-01T05:27:36;31.13;;;19.88;;
25511;SDS011;13414;44.534;18.700;2023-03-01T05:30:04;29.55;;;19.20;;
25511;SDS011;13414;44.534;18.700;2023-03-01T05:32:39;30.95;;;20.67;;
25511;SDS011;13414;44.534;18.700;2023-03-01T05:35:09;23.52;;;17.23;;
25511;SDS011;13414;44.534;18.700;2023-03-01T05:37:44;34.22;;;19.80;;
25511;SDS011;13414;44.534;18.700;2023-03-01T05:40:13;21.50;;;15.55;;
25511;SDS011;13414;44.534;18.700;2023-03-01T05:42:42;20.35;;;15.57;;
25511;SDS011;13414;44.534;18.700;2023-03-01T05:45:11;20.35;;;15.32;;
25511;SDS011;13414;44.534;18.700;2023-03-01T05:47:40;20.75;;;16.30;;
25511;SDS011;13414;44.534;18.700;2023-03-01T05:50:11;28.20;;;20.52;;
25511;SDS011;13414;44.534;18.700;2023-03-01T05:52:39;44.15;;;28.17;;
25511;SDS011;13414;44.534;18.700;2023-03-01T05:55:09;88.32;;;52.08;;
25511;SDS011;13414;44.534;18.700;2023-03-01T05:57:36;93.47;;;55.30;;
25511;SDS011;13414;44.534;18.700;2023-03-01T06:00:04;98.80;;;57.58;;
25511;SDS011;13414;44.534;18.700;2023-03-01T06:02:37;81.22;;;46.08;;
25511;SDS011;13414;44.534;18.700;2023-03-01T06:05:06;39.60;;;23.80;;
25511;SDS011;13414;44.534;18.700;2023-03-01T06:07:35;28.88;;;19.90;;
25511;SDS011;13414;44.534;18.700;2023-03-01T06:10:03;51.30;;;30.95;;
25511;SDS011;13414;44.534;18.700;2023-03-01T06:12:34;53.13;;;31.08;;
25511;SDS011;13414;44.534;18.700;2023-03-01T06:15:02;74.18;;;40.97;;
25511;SDS011;13414;44.534;18.700;2023-03-01T06:17:31;45.83;;;28.02;;
25511;SDS011;13414;44.534;18.700;2023-03-01T06:20:02;70.53;;;41.67;;
25511;SDS011;13414;44.534;18.700;2023-03-01T06:22:31;94.60;;;50.20;;
25511;SDS011;13414;44.534;18.700;2023-03-01T06:24:59;100.82;;;52.30;;
25511;SDS011;13414;44.534;18.700;2023-03-01T06:27:27;96.03;;;51.42;;
25511;SDS011;13414;44.534;18.700;2023-03-01T06:29:56;111.55;;;53.00;;
25511;SDS011;13414;44.534;18.700;2023-03-01T06:32:23;106.25;;;54.05;;
25511;SDS011;13414;44.534;18.700;2023-03-01T06:34:51;98.93;;;51.80;;
25511;SDS011;13414;44.534;18.700;2023-03-01T06:37:18;98.90;;;52.47;;
25511;SDS011;13414;44.534;18.700;2023-03-01T06:39:46;96.88;;;51.28;;
25511;SDS011;13414;44.534;18.700;2023-03-01T06:42:14;74.75;;;42.83;;
25511;SDS011;13414;44.534;18.700;2023-03-01T06:44:42;77.63;;;44.97;;
25511;SDS011;13414;44.534;18.700;2023-03-01T06:47:12;81.60;;;47.03;;
25511;SDS011;13414;44.534;18.700;2023-03-01T06:49:40;53.80;;;35.10;;
25511;SDS011;13414;44.534;18.700;2023-03-01T06:52:08;56.00;;;34.50;;
25511;SDS011;13414;44.534;18.700;2023-03-01T06:54:35;85.55;;;48.08;;
25511;SDS011;13414;44.534;18.700;2023-03-01T06:57:03;82.50;;;49.83;;
25511;SDS011;13414;44.534;18.700;2023-03-01T06:59:30;71.00;;;44.60;;
25511;SDS011;13414;44.534;18.700;2023-03-01T07:01:58;73.13;;;44.17;;
25511;SDS011;13414;44.534;18.700;2023-03-01T07:04:26;66.47;;;41.80;;
25511;SDS011;13414;44.534;18.700;2023-03-01T07:06:55;68.97;;;39.80;;
25511;SDS011;13414;44.534;18.700;2023-03-01T07:09:23;60.78;;;37.33;;
25511;SDS011;13414;44.534;18.700;2023-03-01T07:11:51;65.60;;;41.30;;
25511;SDS011;13414;44.534;18.700;2023-03-01T07:14:18;53.78;;;34.38;;
25511;SDS011;13414;44.534;18.700;2023-03-01T07:16:46;54.72;;;31.23;;
25511;SDS011;13414;44.534;18.700;2023-03-01T07:19:13;82.50;;;54.63;;
25511;SDS011;13414;44.534;18.700;2023-03-01T07:21:42;160.52;;;89.55;;
25511;SDS011;13414;44.534;18.700;2023-03-01T07:24:10;144.43;;;81.82;;
25511;SDS011;13414;44.534;18.700;2023-03-01T07:26:38;116.28;;;74.32;;
25511;SDS011;13414;44.534;18.700;2023-03-01T07:29:05;111.22;;;67.57;;
25511;SDS011;13414;44.534;18.700;2023-03-01T07:31:34;98.20;;;61.15;;
25511;SDS011;13414;44.534;18.700;2023-03-01T07:34:02;99.80;;;62.95;;
25511;SDS011;13414;44.534;18.700;2023-03-01T07:36:29;97.97;;;59.35;;
25511;SDS011;13414;44.534;18.700;2023-03-01T07:39:01;107.20;;;65.70;;
25511;SDS011;13414;44.534;18.700;2023-03-01T07:41:36;44.92;;;29.48;;
25511;SDS011;13414;44.534;18.700;2023-03-01T07:44:03;44.17;;;30.25;;
25511;SDS011;13414;44.534;18.700;2023-03-01T07:46:31;46.10;;;30.27;;
25511;SDS011;13414;44.534;18.700;2023-03-01T07:48:59;62.97;;;41.30;;
25511;SDS011;13414;44.534;18.700;2023-03-01T07:51:26;67.07;;;43.63;;
25511;SDS011;13414;44.534;18.700;2023-03-01T07:53:53;64.97;;;41.88;;
25511;SDS011;13414;44.534;18.700;2023-03-01T07:56:22;56.75;;;37.25;;
25511;SDS011;13414;44.534;18.700;2023-03-01T07:58:50;63.13;;;39.88;;
25511;SDS011;13414;44.534;18.700;2023-03-01T08:01:18;90.32;;;53.65;;
25511;SDS011;13414;44.534;18.700;2023-03-01T08:03:46;74.68;;;46.85;;
25511;SDS011;13414;44.534;18.700;2023-03-01T08:06:15;71.32;;;44.60;;
25511;SDS011;13414;44.534;18.700;2023-03-01T08:08:43;70.13;;;43.78;;
25511;SDS011;13414;44.534;18.700;2023-03-01T08:11:12;64.55;;;40.33;;
25511;SDS011;13414;44.534;18.700;2023-03-01T08:13:42;50.85;;;31.88;;
25511;SDS011;13414;44.534;18.700;2023-03-01T08:16:11;53.67;;;34.00;;
25511;SDS011;13414;44.534;18.700;2023-03-01T08:18:39;43.55;;;29.13;;
25511;SDS011;13414;44.534;18.700;2023-03-01T08:21:08;53.47;;;34.40;;
25511;SDS011;13414;44.534;18.700;2023-03-01T08:23:37;56.55;;;36.13;;
25511;SDS011;13414;44.534;18.700;2023-03-01T08:26:06;59.95;;;37.55;;
25511;SDS011;13414;44.534;18.700;2023-03-01T08:28:38;93.15;;;55.50;;
25511;SDS011;13414;44.534;18.700;2023-03-01T08:31:15;104.85;;;56.03;;
25511;SDS011;13414;44.534;18.700;2023-03-01T08:33:44;88.18;;;50.97;;
25511;SDS011;13414;44.534;18.700;2023-03-01T08:36:16;83.93;;;54.72;;
25511;SDS011;13414;44.534;18.700;2023-03-01T08:38:48;103.78;;;64.00;;
25511;SDS011;13414;44.534;18.700;2023-03-01T08:41:24;140.10;;;76.80;;
25511;SDS011;13414;44.534;18.700;2023-03-01T08:43:53;141.15;;;77.45;;
25511;SDS011;13414;44.534;18.700;2023-03-01T08:46:25;140.50;;;76.05;;
25511;SDS011;13414;44.534;18.700;2023-03-01T08:48:53;144.73;;;78.25;;
25511;SDS011;13414;44.534;18.700;2023-03-01T08:51:21;136.90;;;75.57;;
25511;SDS011;13414;44.534;18.700;2023-03-01T08:53:50;150.95;;;79.80;;
25511;SDS011;13414;44.534;18.700;2023-03-01T08:56:20;131.77;;;69.93;;
25511;SDS011;13414;44.534;18.700;2023-03-01T08:58:48;130.43;;;72.22;;
25511;SDS011;13414;44.534;18.700;2023-03-01T09:01:17;134.25;;;72.95;;
25511;SDS011;13414;44.534;18.700;2023-03-01T09:03:47;159.95;;;85.72;;
25511;SDS011;13414;44.534;18.700;2023-03-01T09:06:15;142.20;;;76.93;;
25511;SDS011;13414;44.534;18.700;2023-03-01T09:08:45;128.65;;;72.28;;
25511;SDS011;13414;44.534;18.700;2023-03-01T09:11:17;124.82;;;71.03;;
25511;SDS011;13414;44.534;18.700;2023-03-01T09:13:46;139.90;;;75.13;;
25511;SDS011;13414;44.534;18.700;2023-03-01T09:16:15;125.53;;;72.10;;
25511;SDS011;13414;44.534;18.700;2023-03-01T09:18:44;126.18;;;71.47;;
25511;SDS011;13414;44.534;18.700;2023-03-01T09:21:16;114.63;;;66.20;;
25511;SDS011;13414;44.534;18.700;2023-03-01T09:23:44;118.28;;;69.30;;
25511;SDS011;13414;44.534;18.700;2023-03-01T09:26:14;125.45;;;72.85;;
25511;SDS011;13414;44.534;18.700;2023-03-01T09:28:44;122.15;;;69.22;;
25511;SDS011;13414;44.534;18.700;2023-03-01T09:31:12;125.43;;;71.28;;
25511;SDS011;13414;44.534;18.700;2023-03-01T09:33:42;116.72;;;70.60;;
25511;SDS011;13414;44.534;18.700;2023-03-01T09:36:14;114.43;;;71.65;;
25511;SDS011;13414;44.534;18.700;2023-03-01T09:38:42;118.80;;;70.60;;
25511;SDS011;13414;44.534;18.700;2023-03-01T09:41:10;110.78;;;66.93;;
25511;SDS011;13414;44.534;18.700;2023-03-01T09:43:46;121.07;;;71.00;;
25511;SDS011;13414;44.534;18.700;2023-03-01T09:46:19;117.93;;;67.50;;
25511;SDS011;13414;44.534;18.700;2023-03-01T09:48:50;111.70;;;65.95;;
25511;SDS011;13414;44.534;18.700;2023-03-01T09:51:23;112.07;;;65.72;;
25511;SDS011;13414;44.534;18.700;2023-03-01T09:53:53;118.20;;;69.10;;
25511;SDS011;13414;44.534;18.700;2023-03-01T09:56:24;124.32;;;74.60;;
25511;SDS011;13414;44.534;18.700;2023-03-01T09:58:57;128.07;;;73.28;;
25511;SDS011;13414;44.534;18.700;2023-03-01T10:01:35;99.75;;;59.15;;
25511;SDS011;13414;44.534;18.700;2023-03-01T10:07:12;138.70;;;81.25;;
25511;SDS011;13414;44.534;18.700;2023-03-01T10:09:46;162.52;;;100.55;;
25511;SDS011;13414;44.534;18.700;2023-03-01T10:12:15;173.35;;;110.68;;
25511;SDS011;13414;44.534;18.700;2023-03-01T10:14:48;153.77;;;102.68;;
25511;SDS011;13414;44.534;18.700;2023-03-01T10:17:24;164.27;;;106.63;;
25511;SDS011;13414;44.534;18.700;2023-03-01T10:19:57;138.02;;;89.88;;
25511;SDS011;13414;44.534;18.700;2023-03-01T10:22:44;120.15;;;80.93;;
25511;SDS011;13414;44.534;18.700;2023-03-01T10:25:17;123.32;;;79.53;;
25511;SDS011;13414;44.534;18.700;2023-03-01T10:27:59;112.93;;;75.25;;
25511;SDS011;13414;44.534;18.700;2023-03-01T10:30:32;110.53;;;69.85;;
25511;SDS011;13414;44.534;18.700;2023-03-01T10:33:03;89.07;;;57.75;;
25511;SDS011;13414;44.534;18.700;2023-03-01T10:35:40;88.93;;;55.95;;
25511;SDS011;13414;44.534;18.700;2023-03-01T10:38:10;100.57;;;60.38;;
25511;SDS011;13414;44.534;18.700;2023-03-01T10:40:49;92.90;;;57.45;;
25511;SDS011;13414;44.534;18.700;2023-03-01T10:43:19;81.78;;;52.17;;
25511;SDS011;13414;44.534;18.700;2023-03-01T10:45:48;91.07;;;55.95;;
25511;SDS011;13414;44.534;18.700;2023-03-01T10:48:16;87.28;;;55.42;;
25511;SDS011;13414;44.534;18.700;2023-03-01T10:50:49;89.68;;;55.45;;
25511;SDS011;13414;44.534;18.700;2023-03-01T10:53:23;86.85;;;51.90;;
25511;SDS011;13414;44.534;18.700;2023-03-01T10:55:58;79.70;;;50.38;;
25511;SDS011;13414;44.534;18.700;2023-03-01T10:58:28;78.95;;;50.30;;
25511;SDS011;13414;44.534;18.700;2023-03-01T11:00:57;77.90;;;48.88;;
25511;SDS011;13414;44.534;18.700;2023-03-01T11:03:26;100.57;;;61.08;;
25511;SDS011;13414;44.534;18.700;2023-03-01T11:06:00;104.32;;;63.20;;
25511;SDS011;13414;44.534;18.700;2023-03-01T11:08:32;97.97;;;59.92;;
25511;SDS011;13414;44.534;18.700;2023-03-01T11:11:05;87.13;;;55.73;;
25511;SDS011;13414;44.534;18.700;2023-03-01T11:13:53;73.88;;;50.53;;
25511;SDS011;13414;44.534;18.700;2023-03-01T11:16:22;72.35;;;47.15;;
25511;SDS011;13414;44.534;18.700;2023-03-01T11:18:56;71.68;;;47.80;;
25511;SDS011;13414;44.534;18.700;2023-03-01T11:21:25;78.38;;;48.40;;
25511;SDS011;13414;44.534;18.700;2023-03-01T11:23:57;70.93;;;45.90;;
25511;SDS011;13414;44.534;18.700;2023-03-01T11:26:28;56.80;;;35.78;;
25511;SDS011;13414;44.534;18.700;2023-03-01T11:29:02;65.05;;;42.67;;
25511;SDS011;13414;44.534;18.700;2023-03-01T11:31:33;62.30;;;39.53;;
25511;SDS011;13414;44.534;18.700;2023-03-01T11:34:04;58.92;;;39.60;;
25511;SDS011;13414;44.534;18.700;2023-03-01T11:36:39;64.07;;;42.58;;
25511;SDS011;13414;44.534;18.700;2023-03-01T11:39:15;77.75;;;47.92;;
25511;SDS011;13414;44.534;18.700;2023-03-01T11:41:52;109.72;;;67.95;;
25511;SDS011;13414;44.534;18.700;2023-03-01T11:44:28;141.30;;;84.07;;
25511;SDS011;13414;44.534;18.700;2023-03-01T11:47:08;157.82;;;85.93;;
25511;SDS011;13414;44.534;18.700;2023-03-01T11:49:55;155.30;;;81.43;;
25511;SDS011;13414;44.534;18.700;2023-03-01T11:52:43;143.40;;;78.78;;
25511;SDS011;13414;44.534;18.700;2023-03-01T11:55:26;148.52;;;82.07;;
25511;SDS011;13414;44.534;18.700;2023-03-01T11:58:07;148.85;;;79.90;;
25511;SDS011;13414;44.534;18.700;2023-03-01T12:00:58;145.23;;;79.75;;
25511;SDS011;13414;44.534;18.700;2023-03-01T12:03:38;144.27;;;85.28;;
25511;SDS011;13414;44.534;18.700;2023-03-01T12:06:21;141.70;;;84.18;;
25511;SDS011;13414;44.534;18.700;2023-03-01T12:09:02;152.43;;;91.32;;
25511;SDS011;13414;44.534;18.700;2023-03-01T12:11:46;152.02;;;87.75;;
25511;SDS011;13414;44.534;18.700;2023-03-01T12:14:35;152.70;;;87.35;;
25511;SDS011;13414;44.534;18.700;2023-03-01T12:17:17;145.35;;;88.65;;
25511;SDS011;13414;44.534;18.700;2023-03-01T12:20:12;147.48;;;88.88;;
25511;SDS011;13414;44.534;18.700;2023-03-01T12:22:52;153.32;;;91.72;;
25511;SDS011;13414;44.534;18.700;2023-03-01T12:25:32;143.15;;;85.68;;
25511;SDS011;13414;44.534;18.700;2023-03-01T12:34:08;127.55;;;77.10;;
25511;SDS011;13414;44.534;18.700;2023-03-01T12:36:59;123.63;;;75.72;;
25511;SDS011;13414;44.534;18.700;2023-03-01T12:39:47;129.80;;;77.20;;
25511;SDS011;13414;44.534;18.700;2023-03-01T12:42:25;126.38;;;77.05;;
25511;SDS011;13414;44.534;18.700;2023-03-01T12:45:16;127.10;;;76.82;;
25511;SDS011;13414;44.534;18.700;2023-03-01T12:48:00;86.05;;;53.88;;
25511;SDS011;13414;44.534;18.700;2023-03-01T12:50:38;65.63;;;35.92;;
25511;SDS011;13414;44.534;18.700;2023-03-01T12:53:14;57.70;;;35.45;;
25511;SDS011;13414;44.534;18.700;2023-03-01T12:55:48;37.85;;;22.77;;
25511;SDS011;13414;44.534;18.700;2023-03-01T12:58:21;30.85;;;19.95;;
25511;SDS011;13414;44.534;18.700;2023-03-01T13:01:02;31.40;;;18.55;;
25511;SDS011;13414;44.534;18.700;2023-03-01T13:03:51;24.25;;;15.73;;
25511;SDS011;13414;44.534;18.700;2023-03-01T13:06:29;25.45;;;17.45;;
25511;SDS011;13414;44.534;18.700;2023-03-01T13:09:04;27.75;;;17.52;;
25511;SDS011;13414;44.534;18.700;2023-03-01T13:11:40;28.30;;;17.95;;
25511;SDS011;13414;44.534;18.700;2023-03-01T13:22:38;34.80;;;21.50;;
25511;SDS011;13414;44.534;18.700;2023-03-01T13:25:14;44.47;;;27.67;;
25511;SDS011;13414;44.534;18.700;2023-03-01T13:27:43;35.03;;;22.35;;
25511;SDS011;13414;44.534;18.700;2023-03-01T13:39:29;37.13;;;22.52;;
25511;SDS011;13414;44.534;18.700;2023-03-01T13:41:59;37.75;;;23.67;;
25511;SDS011;13414;44.534;18.700;2023-03-01T13:44:29;41.55;;;25.80;;
25511;SDS011;13414;44.534;18.700;2023-03-01T13:46:59;39.15;;;24.33;;
25511;SDS011;13414;44.534;18.700;2023-03-01T13:49:33;46.20;;;29.13;;
25511;SDS011;13414;44.534;18.700;2023-03-01T13:55:13;36.40;;;22.50;;
25511;SDS011;13414;44.534;18.700;2023-03-01T13:57:45;30.77;;;20.38;;
25511;SDS011;13414;44.534;18.700;2023-03-01T14:00:26;39.45;;;24.83;;
25511;SDS011;13414;44.534;18.700;2023-03-01T14:03:03;38.53;;;25.30;;
25511;SDS011;13414;44.534;18.700;2023-03-01T14:05:41;54.45;;;34.20;;
25511;SDS011;13414;44.534;18.700;2023-03-01T14:08:18;59.50;;;38.30;;
25511;SDS011;13414;44.534;18.700;2023-03-01T14:10:52;46.22;;;29.13;;
25511;SDS011;13414;44.534;18.700;2023-03-01T14:13:30;43.88;;;25.10;;
25511;SDS011;13414;44.534;18.700;2023-03-01T14:16:14;40.20;;;25.75;;
25511;SDS011;13414;44.534;18.700;2023-03-01T14:18:53;75.15;;;45.47;;
25511;SDS011;13414;44.534;18.700;2023-03-01T14:21:30;109.80;;;64.65;;
25511;SDS011;13414;44.534;18.700;2023-03-01T14:23:58;99.20;;;59.58;;
25511;SDS011;13414;44.534;18.700;2023-03-01T14:26:25;84.45;;;51.45;;
25511;SDS011;13414;44.534;18.700;2023-03-01T14:28:53;80.90;;;51.00;;
25511;SDS011;13414;44.534;18.700;2023-03-01T14:31:35;80.70;;;48.40;;
25511;SDS011;13414;44.534;18.700;2023-03-01T14:34:04;76.25;;;45.65;;
25511;SDS011;13414;44.534;18.700;2023-03-01T14:36:33;73.07;;;47.10;;
25511;SDS011;13414;44.534;18.700;2023-03-01T14:39:02;73.45;;;47.60;;
25511;SDS011;13414;44.534;18.700;2023-03-01T14:41:43;75.40;;;45.97;;
25511;SDS011;13414;44.534;18.700;2023-03-01T14:44:13;70.65;;;43.80;;
25511;SDS011;13414;44.534;18.700;2023-03-01T14:46:44;71.50;;;43.58;;
25511;SDS011;13414;44.534;18.700;2023-03-01T14:49:14;69.43;;;42.70;;
25511;SDS011;13414;44.534;18.700;2023-03-01T14:51:49;80.38;;;48.17;;
25511;SDS011;13414;44.534;18.700;2023-03-01T14:54:21;86.07;;;55.30;;
25511;SDS011;13414;44.534;18.700;2023-03-01T14:56:52;97.80;;;59.40;;
25511;SDS011;13414;44.534;18.700;2023-03-01T14:59:22;80.78;;;48.90;;
25511;SDS011;13414;44.534;18.700;2023-03-01T15:01:50;73.57;;;45.42;;
25511;SDS011;13414;44.534;18.700;2023-03-01T15:04:19;76.68;;;47.70;;